sensor_id;sensor_type;location;lat;lon;timestamp;temperature;humidity
65472;DHT22;52068;50.710;14.492;2023-08-07T00:00:03;22.67;56.73
65472;DHT22;52068;50.710;14.492;2023-08-07T00:02:29;22.67;56.73
65472;DHT22;52068;50.710;14.492;2023-08-07T00:04:54;22.69;56.73
65472;DHT22;52068;50.710;14.492;2023-08-07T00:07:20;22.70;56.70
65472;DHT22;52068;50.710;14.492;2023-08-07T00:09:45;22.67;56.73
65472;DHT22;52068;50.710;14.492;2023-08-07T00:12:10;22.70;56.74
65472;DHT22;52068;50.710;14.492;2023-08-07T00:14:36;22.69;56.75
65472;DHT22;52068;50.710;14.492;2023-08-07T00:17:01;22.69;56.76
65472;DHT22;52068;50.710;14.492;2023-08-07T00:19:27;22.70;56.77
65472;DHT22;52068;50.710;14.492;2023-08-07T00:21:52;22.66;56.72
65472;DHT22;52068;50.710;14.492;2023-08-07T00:24:17;22.67;56.68
65472;DHT22;52068;50.710;14.492;2023-08-07T00:26:43;22.66;56.64
65472;DHT22;52068;50.710;14.492;2023-08-07T00:29:08;22.69;56.67
65472;DHT22;52068;50.710;14.492;2023-08-07T00:31:34;22.64;56.68
65472;DHT22;52068;50.710;14.492;2023-08-07T00:33:59;22.66;56.75
65472;DHT22;52068;50.710;14.492;2023-08-07T00:36:25;22.63;56.72
65472;DHT22;52068;50.710;14.492;2023-08-07T00:38:53;22.66;56.77
65472;DHT22;52068;50.710;14.492;2023-08-07T00:41:19;22.64;56.74
65472;DHT22;52068;50.710;14.492;2023-08-07T00:43:45;22.66;56.76
65472;DHT22;52068;50.710;14.492;2023-08-07T00:46:10;22.63;56.70
65472;DHT22;52068;50.710;14.492;2023-08-07T00:48:35;22.62;56.61
65472;DHT22;52068;50.710;14.492;2023-08-07T00:51:01;22.62;56.56
65472;DHT22;52068;50.710;14.492;2023-08-07T00:53:28;22.62;56.59
65472;DHT22;52068;50.710;14.492;2023-08-07T00:55:54;22.63;56.56
65472;DHT22;52068;50.710;14.492;2023-08-07T00:58:19;22.62;56.62
65472;DHT22;52068;50.710;14.492;2023-08-07T01:00:44;22.60;56.68
65472;DHT22;52068;50.710;14.492;2023-08-07T01:03:11;22.60;56.78
65472;DHT22;52068;50.710;14.492;2023-08-07T01:05:37;22.60;56.79
65472;DHT22;52068;50.710;14.492;2023-08-07T01:08:03;22.57;56.87
65472;DHT22;52068;50.710;14.492;2023-08-07T01:13:40;22.60;56.79
65472;DHT22;52068;50.710;14.492;2023-08-07T01:16:14;22.63;56.70
65472;DHT22;52068;50.710;14.492;2023-08-07T01:18:42;22.62;56.66
65472;DHT22;52068;50.710;14.492;2023-08-07T01:21:17;22.63;56.63
65472;DHT22;52068;50.710;14.492;2023-08-07T01:23:42;22.62;56.58
65472;DHT22;52068;50.710;14.492;2023-08-07T01:26:08;22.62;56.65
65472;DHT22;52068;50.710;14.492;2023-08-07T01:28:37;22.62;56.62
65472;DHT22;52068;50.710;14.492;2023-08-07T01:31:08;22.62;56.66
65472;DHT22;52068;50.710;14.492;2023-08-07T01:33:46;22.64;56.65
65472;DHT22;52068;50.710;14.492;2023-08-07T01:36:14;22.62;56.67
65472;DHT22;52068;50.710;14.492;2023-08-07T01:38:41;22.63;56.64
65472;DHT22;52068;50.710;14.492;2023-08-07T01:41:08;22.63;56.61
65472;DHT22;52068;50.710;14.492;2023-08-07T01:43:34;22.62;56.49
65472;DHT22;52068;50.710;14.492;2023-08-07T01:45:59;22.62;56.55
65472;DHT22;52068;50.710;14.492;2023-08-07T01:48:25;22.62;56.59
65472;DHT22;52068;50.710;14.492;2023-08-07T01:50:52;22.63;56.56
65472;DHT22;52068;50.710;14.492;2023-08-07T01:53:17;22.62;56.56
65472;DHT22;52068;50.710;14.492;2023-08-07T01:55:43;22.60;56.59
65472;DHT22;52068;50.710;14.492;2023-08-07T01:58:08;22.60;56.62
65472;DHT22;52068;50.710;14.492;2023-08-07T02:00:33;22.60;56.54
65472;DHT22;52068;50.710;14.492;2023-08-07T02:02:59;22.59;56.57
65472;DHT22;52068;50.710;14.492;2023-08-07T02:05:24;22.55;56.58
65472;DHT22;52068;50.710;14.492;2023-08-07T02:07:49;22.56;56.48
65472;DHT22;52068;50.710;14.492;2023-08-07T02:10:15;22.57;56.50
65472;DHT22;52068;50.710;14.492;2023-08-07T02:12:40;22.55;56.47
65472;DHT22;52068;50.710;14.492;2023-08-07T02:15:06;22.55;56.53
65472;DHT22;52068;50.710;14.492;2023-08-07T02:17:31;22.56;56.46
65472;DHT22;52068;50.710;14.492;2023-08-07T02:19:58;22.55;56.50
65472;DHT22;52068;50.710;14.492;2023-08-07T02:22:23;22.56;56.54
65472;DHT22;52068;50.710;14.492;2023-08-07T02:24:49;22.53;56.55
65472;DHT22;52068;50.710;14.492;2023-08-07T02:27:14;22.55;56.59
65472;DHT22;52068;50.710;14.492;2023-08-07T02:29:40;22.52;56.56
65472;DHT22;52068;50.710;14.492;2023-08-07T02:32:05;22.53;56.56
65472;DHT22;52068;50.710;14.492;2023-08-07T02:34:31;22.53;56.53
65472;DHT22;52068;50.710;14.492;2023-08-07T02:36:57;22.52;56.32
65472;DHT22;52068;50.710;14.492;2023-08-07T02:39:23;22.46;56.05
65472;DHT22;52068;50.710;14.492;2023-08-07T02:41:48;22.45;55.99
65472;DHT22;52068;50.710;14.492;2023-08-07T02:44:14;22.39;56.07
65472;DHT22;52068;50.710;14.492;2023-08-07T02:46:39;22.35;56.21
65472;DHT22;52068;50.710;14.492;2023-08-07T02:49:05;22.32;56.24
65472;DHT22;52068;50.710;14.492;2023-08-07T02:51:31;22.25;56.47
65472;DHT22;52068;50.710;14.492;2023-08-07T02:53:57;22.22;56.65
65472;DHT22;52068;50.710;14.492;2023-08-07T02:56:22;22.18;56.76
65472;DHT22;52068;50.710;14.492;2023-08-07T02:58:48;22.14;56.99
65472;DHT22;52068;50.710;14.492;2023-08-07T03:01:13;22.11;57.11
65472;DHT22;52068;50.710;14.492;2023-08-07T03:03:39;22.08;57.53
65472;DHT22;52068;50.710;14.492;2023-08-07T03:06:04;22.05;57.58
65472;DHT22;52068;50.710;14.492;2023-08-07T03:08:29;22.09;57.58
65472;DHT22;52068;50.710;14.492;2023-08-07T03:10:57;22.12;57.58
65472;DHT22;52068;50.710;14.492;2023-08-07T03:13:26;22.14;57.51
65472;DHT22;52068;50.710;14.492;2023-08-07T03:16:02;22.16;57.48
65472;DHT22;52068;50.710;14.492;2023-08-07T03:18:28;22.19;57.44
65472;DHT22;52068;50.710;14.492;2023-08-07T03:20:57;22.22;57.31
65472;DHT22;52068;50.710;14.492;2023-08-07T03:23:23;22.25;57.25
65472;DHT22;52068;50.710;14.492;2023-08-07T03:25:50;22.28;57.19
65472;DHT22;52068;50.710;14.492;2023-08-07T03:28:16;22.28;57.12
65472;DHT22;52068;50.710;14.492;2023-08-07T03:30:41;22.29;57.09
65472;DHT22;52068;50.710;14.492;2023-08-07T03:33:07;22.31;57.04
65472;DHT22;52068;50.710;14.492;2023-08-07T03:35:33;22.31;57.01
65472;DHT22;52068;50.710;14.492;2023-08-07T03:37:58;22.31;56.95
65472;DHT22;52068;50.710;14.492;2023-08-07T03:40:23;22.32;56.99
65472;DHT22;52068;50.710;14.492;2023-08-07T03:42:49;22.29;57.02
65472;DHT22;52068;50.710;14.492;2023-08-07T03:45:14;22.31;57.00
65472;DHT22;52068;50.710;14.492;2023-08-07T03:47:39;22.35;56.96
65472;DHT22;52068;50.710;14.492;2023-08-07T03:50:05;22.33;56.97
65472;DHT22;52068;50.710;14.492;2023-08-07T03:52:31;22.33;56.90
65472;DHT22;52068;50.710;14.492;2023-08-07T03:54:56;22.35;56.94
65472;DHT22;52068;50.710;14.492;2023-08-07T03:57:22;22.33;56.93
65472;DHT22;52068;50.710;14.492;2023-08-07T03:59:47;22.36;56.82
65472;DHT22;52068;50.710;14.492;2023-08-07T04:02:12;22.39;56.86
65472;DHT22;52068;50.710;14.492;2023-08-07T04:04:38;22.39;56.89
65472;DHT22;52068;50.710;14.492;2023-08-07T04:07:03;22.43;56.84
65472;DHT22;52068;50.710;14.492;2023-08-07T04:09:29;22.39;56.84
65472;DHT22;52068;50.710;14.492;2023-08-07T04:11:55;22.42;56.77
65472;DHT22;52068;50.710;14.492;2023-08-07T04:14:20;22.41;56.77
65472;DHT22;52068;50.710;14.492;2023-08-07T04:16:45;22.43;56.78
65472;DHT22;52068;50.710;14.492;2023-08-07T04:19:11;22.46;56.71
65472;DHT22;52068;50.710;14.492;2023-08-07T04:21:36;22.43;56.67
65472;DHT22;52068;50.710;14.492;2023-08-07T04:24:01;22.45;56.57
65472;DHT22;52068;50.710;14.492;2023-08-07T04:26:33;22.39;56.59
65472;DHT22;52068;50.710;14.492;2023-08-07T04:28:59;22.38;56.60
65472;DHT22;52068;50.710;14.492;2023-08-07T04:31:25;22.41;56.57
65472;DHT22;52068;50.710;14.492;2023-08-07T04:33:50;22.41;56.59
65472;DHT22;52068;50.710;14.492;2023-08-07T04:36:15;22.39;56.50
65472;DHT22;52068;50.710;14.492;2023-08-07T04:38:41;22.39;56.60
65472;DHT22;52068;50.710;14.492;2023-08-07T04:41:06;22.41;56.46
65472;DHT22;52068;50.710;14.492;2023-08-07T04:43:32;22.36;56.56
65472;DHT22;52068;50.710;14.492;2023-08-07T04:45:57;22.38;56.52
65472;DHT22;52068;50.710;14.492;2023-08-07T04:48:22;22.38;56.62
65472;DHT22;52068;50.710;14.492;2023-08-07T04:50:50;22.38;56.54
65472;DHT22;52068;50.710;14.492;2023-08-07T04:53:15;22.36;56.55
65472;DHT22;52068;50.710;14.492;2023-08-07T04:55:41;22.38;56.56
65472;DHT22;52068;50.710;14.492;2023-08-07T04:58:06;22.35;56.49
65472;DHT22;52068;50.710;14.492;2023-08-07T05:00:32;22.36;56.52
65472;DHT22;52068;50.710;14.492;2023-08-07T05:02:58;22.38;56.47
65472;DHT22;52068;50.710;14.492;2023-08-07T05:05:23;22.33;56.57
65472;DHT22;52068;50.710;14.492;2023-08-07T05:07:48;22.35;56.52
65472;DHT22;52068;50.710;14.492;2023-08-07T05:10:14;22.36;56.58
65472;DHT22;52068;50.710;14.492;2023-08-07T05:12:39;22.36;56.56
65472;DHT22;52068;50.710;14.492;2023-08-07T05:15:05;22.36;56.53
65472;DHT22;52068;50.710;14.492;2023-08-07T05:17:31;22.36;56.53
65472;DHT22;52068;50.710;14.492;2023-08-07T05:19:57;22.39;56.55
65472;DHT22;52068;50.710;14.492;2023-08-07T05:22:22;22.38;56.69
65472;DHT22;52068;50.710;14.492;2023-08-07T05:24:47;22.36;56.71
65472;DHT22;52068;50.710;14.492;2023-08-07T05:27:14;22.36;56.69
65472;DHT22;52068;50.710;14.492;2023-08-07T05:29:39;22.36;56.91
65472;DHT22;52068;50.710;14.492;2023-08-07T05:32:11;22.36;57.15
65472;DHT22;52068;50.710;14.492;2023-08-07T05:34:37;22.41;57.02
65472;DHT22;52068;50.710;14.492;2023-08-07T05:37:03;22.39;56.84
65472;DHT22;52068;50.710;14.492;2023-08-07T05:39:28;22.41;56.73
65472;DHT22;52068;50.710;14.492;2023-08-07T05:41:54;22.41;56.53
65472;DHT22;52068;50.710;14.492;2023-08-07T05:44:23;22.42;56.35
65472;DHT22;52068;50.710;14.492;2023-08-07T05:46:48;22.42;56.22
65472;DHT22;52068;50.710;14.492;2023-08-07T05:49:13;22.43;56.05
65472;DHT22;52068;50.710;14.492;2023-08-07T05:51:39;22.45;55.98
65472;DHT22;52068;50.710;14.492;2023-08-07T05:54:04;22.43;55.90
65472;DHT22;52068;50.710;14.492;2023-08-07T05:56:29;22.43;55.85
65472;DHT22;52068;50.710;14.492;2023-08-07T05:58:55;22.46;55.76
65472;DHT22;52068;50.710;14.492;2023-08-07T06:01:20;22.48;55.75
65472;DHT22;52068;50.710;14.492;2023-08-07T06:03:45;22.46;55.78
65472;DHT22;52068;50.710;14.492;2023-08-07T06:06:12;22.46;55.84
65472;DHT22;52068;50.710;14.492;2023-08-07T06:08:37;22.43;55.86
65472;DHT22;52068;50.710;14.492;2023-08-07T06:11:03;22.45;55.91
65472;DHT22;52068;50.710;14.492;2023-08-07T06:13:30;22.46;55.87
65472;DHT22;52068;50.710;14.492;2023-08-07T06:15:55;22.45;55.87
65472;DHT22;52068;50.710;14.492;2023-08-07T06:18:21;22.46;55.91
65472;DHT22;52068;50.710;14.492;2023-08-07T06:20:47;22.45;55.93
65472;DHT22;52068;50.710;14.492;2023-08-07T06:23:12;22.43;56.04
65472;DHT22;52068;50.710;14.492;2023-08-07T06:25:38;22.46;56.05
65472;DHT22;52068;50.710;14.492;2023-08-07T06:28:03;22.45;56.00
65472;DHT22;52068;50.710;14.492;2023-08-07T06:30:30;22.43;56.05
65472;DHT22;52068;50.710;14.492;2023-08-07T06:32:56;22.45;55.98
65472;DHT22;52068;50.710;14.492;2023-08-07T06:35:22;22.45;55.99
65472;DHT22;52068;50.710;14.492;2023-08-07T06:37:48;22.46;56.00
65472;DHT22;52068;50.710;14.492;2023-08-07T06:40:13;22.46;55.99
65472;DHT22;52068;50.710;14.492;2023-08-07T06:42:39;22.46;55.99
65472;DHT22;52068;50.710;14.492;2023-08-07T06:45:05;22.42;56.04
65472;DHT22;52068;50.710;14.492;2023-08-07T06:47:31;22.45;56.01
65472;DHT22;52068;50.710;14.492;2023-08-07T06:49:57;22.45;56.00
65472;DHT22;52068;50.710;14.492;2023-08-07T06:52:22;22.43;56.07
65472;DHT22;52068;50.710;14.492;2023-08-07T06:54:47;22.43;56.01
65472;DHT22;52068;50.710;14.492;2023-08-07T06:57:13;22.45;55.98
65472;DHT22;52068;50.710;14.492;2023-08-07T06:59:39;22.45;55.95
65472;DHT22;52068;50.710;14.492;2023-08-07T07:02:05;22.43;56.01
65472;DHT22;52068;50.710;14.492;2023-08-07T07:04:31;22.42;55.92
65472;DHT22;52068;50.710;14.492;2023-08-07T07:06:56;22.42;55.93
65472;DHT22;52068;50.710;14.492;2023-08-07T07:09:21;22.43;55.83
65472;DHT22;52068;50.710;14.492;2023-08-07T07:11:47;22.42;55.80
65472;DHT22;52068;50.710;14.492;2023-08-07T07:14:12;22.45;55.75
65472;DHT22;52068;50.710;14.492;2023-08-07T07:16:37;22.43;55.72
65472;DHT22;52068;50.710;14.492;2023-08-07T07:19:03;22.46;55.68
65472;DHT22;52068;50.710;14.492;2023-08-07T07:21:29;22.46;55.68
65472;DHT22;52068;50.710;14.492;2023-08-07T07:23:54;22.49;55.61
65472;DHT22;52068;50.710;14.492;2023-08-07T07:26:19;22.48;55.59
65472;DHT22;52068;50.710;14.492;2023-08-07T07:28:45;22.46;55.61
65472;DHT22;52068;50.710;14.492;2023-08-07T07:31:10;22.51;55.54
65472;DHT22;52068;50.710;14.492;2023-08-07T07:33:37;22.51;55.44
65472;DHT22;52068;50.710;14.492;2023-08-07T07:36:04;22.51;55.44
65472;DHT22;52068;50.710;14.492;2023-08-07T07:38:30;22.51;55.46
65472;DHT22;52068;50.710;14.492;2023-08-07T07:40:56;22.51;55.39
65472;DHT22;52068;50.710;14.492;2023-08-07T07:43:22;22.53;55.37
65472;DHT22;52068;50.710;14.492;2023-08-07T07:45:48;22.56;55.37
65472;DHT22;52068;50.710;14.492;2023-08-07T07:48:14;22.55;55.23
65472;DHT22;52068;50.710;14.492;2023-08-07T07:50:39;22.53;55.21
65472;DHT22;52068;50.710;14.492;2023-08-07T07:53:04;22.55;55.23
65472;DHT22;52068;50.710;14.492;2023-08-07T07:55:30;22.55;55.09
65472;DHT22;52068;50.710;14.492;2023-08-07T07:57:55;22.53;55.06
65472;DHT22;52068;50.710;14.492;2023-08-07T08:00:21;22.57;55.13
65472;DHT22;52068;50.710;14.492;2023-08-07T08:02:51;22.57;55.10
65472;DHT22;52068;50.710;14.492;2023-08-07T08:05:16;22.57;55.07
65472;DHT22;52068;50.710;14.492;2023-08-07T08:07:41;22.57;54.92
65472;DHT22;52068;50.710;14.492;2023-08-07T08:10:08;22.57;54.99
65472;DHT22;52068;50.710;14.492;2023-08-07T08:12:34;22.60;55.02
65472;DHT22;52068;50.710;14.492;2023-08-07T08:15:00;22.64;55.07
65472;DHT22;52068;50.710;14.492;2023-08-07T08:17:25;22.66;55.07
65472;DHT22;52068;50.710;14.492;2023-08-07T08:19:51;22.66;55.23
65472;DHT22;52068;50.710;14.492;2023-08-07T08:22:16;22.69;55.30
65472;DHT22;52068;50.710;14.492;2023-08-07T08:24:41;22.70;55.37
65472;DHT22;52068;50.710;14.492;2023-08-07T08:27:07;22.69;55.38
65472;DHT22;52068;50.710;14.492;2023-08-07T08:29:32;22.72;55.56
65472;DHT22;52068;50.710;14.492;2023-08-07T08:31:57;22.73;55.45
65472;DHT22;52068;50.710;14.492;2023-08-07T08:34:25;22.72;55.49
65472;DHT22;52068;50.710;14.492;2023-08-07T08:36:50;22.69;55.47
65472;DHT22;52068;50.710;14.492;2023-08-07T08:39:16;22.63;55.45
65472;DHT22;52068;50.710;14.492;2023-08-07T08:41:46;22.64;55.42
65472;DHT22;52068;50.710;14.492;2023-08-07T08:44:12;22.63;55.38
65472;DHT22;52068;50.710;14.492;2023-08-07T08:46:40;22.64;55.36
65472;DHT22;52068;50.710;14.492;2023-08-07T08:49:08;22.64;55.31
65472;DHT22;52068;50.710;14.492;2023-08-07T08:51:35;22.64;55.25
65472;DHT22;52068;50.710;14.492;2023-08-07T08:54:01;22.63;55.27
65472;DHT22;52068;50.710;14.492;2023-08-07T08:56:29;22.62;55.24
65472;DHT22;52068;50.710;14.492;2023-08-07T08:58:55;22.63;55.24
65472;DHT22;52068;50.710;14.492;2023-08-07T09:01:21;22.64;55.20
65472;DHT22;52068;50.710;14.492;2023-08-07T09:03:47;22.64;55.18
65472;DHT22;52068;50.710;14.492;2023-08-07T09:06:13;22.63;55.18
65472;DHT22;52068;50.710;14.492;2023-08-07T09:08:41;22.64;55.08
65472;DHT22;52068;50.710;14.492;2023-08-07T09:11:07;22.63;55.13
65472;DHT22;52068;50.710;14.492;2023-08-07T09:13:33;22.66;54.97
65472;DHT22;52068;50.710;14.492;2023-08-07T09:16:00;22.66;54.96
65472;DHT22;52068;50.710;14.492;2023-08-07T09:18:26;22.66;54.98
65472;DHT22;52068;50.710;14.492;2023-08-07T09:20:52;22.66;54.95
65472;DHT22;52068;50.710;14.492;2023-08-07T09:23:18;22.70;54.87
65472;DHT22;52068;50.710;14.492;2023-08-07T09:25:44;22.66;54.89
65472;DHT22;52068;50.710;14.492;2023-08-07T09:28:10;22.69;54.87
65472;DHT22;52068;50.710;14.492;2023-08-07T09:30:36;22.70;54.78
65472;DHT22;52068;50.710;14.492;2023-08-07T09:33:03;22.72;54.65
65472;DHT22;52068;50.710;14.492;2023-08-07T09:35:30;22.73;54.71
65472;DHT22;52068;50.710;14.492;2023-08-07T09:37:59;22.73;54.66
65472;DHT22;52068;50.710;14.492;2023-08-07T09:40:25;22.74;54.58
65472;DHT22;52068;50.710;14.492;2023-08-07T09:42:52;22.77;54.45
65472;DHT22;52068;50.710;14.492;2023-08-07T09:45:25;22.76;54.27
65472;DHT22;52068;50.710;14.492;2023-08-07T09:50:23;22.79;54.20
65472;DHT22;52068;50.710;14.492;2023-08-07T09:52:49;22.79;54.28
65472;DHT22;52068;50.710;14.492;2023-08-07T09:55:14;22.83;54.17
65472;DHT22;52068;50.710;14.492;2023-08-07T09:57:43;22.82;54.08
65472;DHT22;52068;50.710;14.492;2023-08-07T10:00:09;22.83;53.99
65472;DHT22;52068;50.710;14.492;2023-08-07T10:02:37;22.86;53.88
65472;DHT22;52068;50.710;14.492;2023-08-07T10:05:04;22.86;53.98
65472;DHT22;52068;50.710;14.492;2023-08-07T10:07:30;22.87;53.83
65472;DHT22;52068;50.710;14.492;2023-08-07T10:09:56;22.87;53.97
65472;DHT22;52068;50.710;14.492;2023-08-07T10:12:23;22.89;53.95
65472;DHT22;52068;50.710;14.492;2023-08-07T10:14:48;22.89;53.77
65472;DHT22;52068;50.710;14.492;2023-08-07T10:17:15;22.89;53.76
65472;DHT22;52068;50.710;14.492;2023-08-07T10:19:41;22.92;53.79
65472;DHT22;52068;50.710;14.492;2023-08-07T10:22:07;22.90;53.82
65472;DHT22;52068;50.710;14.492;2023-08-07T10:24:35;22.90;53.82
65472;DHT22;52068;50.710;14.492;2023-08-07T10:27:03;22.93;53.87
65472;DHT22;52068;50.710;14.492;2023-08-07T10:29:29;22.93;54.05
65472;DHT22;52068;50.710;14.492;2023-08-07T10:31:57;22.93;53.82
65472;DHT22;52068;50.710;14.492;2023-08-07T10:34:23;22.94;53.88
65472;DHT22;52068;50.710;14.492;2023-08-07T10:36:49;22.96;53.54
65472;DHT22;52068;50.710;14.492;2023-08-07T10:39:15;22.96;53.69
65472;DHT22;52068;50.710;14.492;2023-08-07T10:41:44;22.96;53.58
65472;DHT22;52068;50.710;14.492;2023-08-07T10:44:19;22.99;53.62
65472;DHT22;52068;50.710;14.492;2023-08-07T10:46:53;22.99;53.57
65472;DHT22;52068;50.710;14.492;2023-08-07T10:49:37;23.00;53.39
65472;DHT22;52068;50.710;14.492;2023-08-07T10:54:45;23.00;53.35
65472;DHT22;52068;50.710;14.492;2023-08-07T10:57:12;23.04;53.20
65472;DHT22;52068;50.710;14.492;2023-08-07T10:59:43;23.03;53.34
65472;DHT22;52068;50.710;14.492;2023-08-07T11:02:11;23.02;53.48
65472;DHT22;52068;50.710;14.492;2023-08-07T11:04:38;23.03;53.48
65472;DHT22;52068;50.710;14.492;2023-08-07T11:07:03;23.04;53.55
65472;DHT22;52068;50.710;14.492;2023-08-07T11:09:29;23.04;53.63
65472;DHT22;52068;50.710;14.492;2023-08-07T11:11:54;23.04;53.57
65472;DHT22;52068;50.710;14.492;2023-08-07T11:14:20;23.06;53.73
65472;DHT22;52068;50.710;14.492;2023-08-07T11:16:47;23.04;53.52
65472;DHT22;52068;50.710;14.492;2023-08-07T11:19:17;23.04;53.61
65472;DHT22;52068;50.710;14.492;2023-08-07T11:21:43;23.04;53.66
65472;DHT22;52068;50.710;14.492;2023-08-07T11:24:12;23.04;53.74
65472;DHT22;52068;50.710;14.492;2023-08-07T11:26:37;23.02;53.70
65472;DHT22;52068;50.710;14.492;2023-08-07T11:29:03;23.03;53.67
65472;DHT22;52068;50.710;14.492;2023-08-07T11:31:28;23.02;53.80
65472;DHT22;52068;50.710;14.492;2023-08-07T11:33:57;23.00;53.90
65472;DHT22;52068;50.710;14.492;2023-08-07T11:36:23;22.99;53.94
65472;DHT22;52068;50.710;14.492;2023-08-07T11:38:49;23.03;54.56
65472;DHT22;52068;50.710;14.492;2023-08-07T11:41:17;23.04;54.12
65472;DHT22;52068;50.710;14.492;2023-08-07T11:43:43;23.03;53.68
65472;DHT22;52068;50.710;14.492;2023-08-07T11:46:10;23.04;53.77
65472;DHT22;52068;50.710;14.492;2023-08-07T11:48:38;23.06;53.86
65472;DHT22;52068;50.710;14.492;2023-08-07T11:51:05;23.03;53.73
65472;DHT22;52068;50.710;14.492;2023-08-07T11:53:33;23.02;53.76
65472;DHT22;52068;50.710;14.492;2023-08-07T11:56:00;23.04;53.88
65472;DHT22;52068;50.710;14.492;2023-08-07T11:58:37;23.03;53.85
65472;DHT22;52068;50.710;14.492;2023-08-07T12:01:09;22.99;53.94
65472;DHT22;52068;50.710;14.492;2023-08-07T12:03:37;23.02;53.95
65472;DHT22;52068;50.710;14.492;2023-08-07T12:06:05;22.99;53.98
65472;DHT22;52068;50.710;14.492;2023-08-07T12:08:31;22.99;53.95
65472;DHT22;52068;50.710;14.492;2023-08-07T12:10:57;22.97;54.00
65472;DHT22;52068;50.710;14.492;2023-08-07T12:13:26;22.99;54.09
65472;DHT22;52068;50.710;14.492;2023-08-07T12:15:56;22.99;54.05
65472;DHT22;52068;50.710;14.492;2023-08-07T12:18:22;23.00;54.03
65472;DHT22;52068;50.710;14.492;2023-08-07T12:20:51;23.03;54.13
65472;DHT22;52068;50.710;14.492;2023-08-07T12:23:17;23.04;54.05
65472;DHT22;52068;50.710;14.492;2023-08-07T12:25:44;23.06;54.20
65472;DHT22;52068;50.710;14.492;2023-08-07T12:28:09;23.10;54.31
65472;DHT22;52068;50.710;14.492;2023-08-07T12:30:36;23.11;54.34
65472;DHT22;52068;50.710;14.492;2023-08-07T12:33:01;23.15;54.46
65472;DHT22;52068;50.710;14.492;2023-08-07T12:35:32;23.13;54.63
65472;DHT22;52068;50.710;14.492;2023-08-07T12:37:58;23.14;54.54
65472;DHT22;52068;50.710;14.492;2023-08-07T12:40:23;23.15;54.30
65472;DHT22;52068;50.710;14.492;2023-08-07T12:42:49;23.17;53.91
65472;DHT22;52068;50.710;14.492;2023-08-07T12:45:16;23.15;53.77
65472;DHT22;52068;50.710;14.492;2023-08-07T12:47:44;23.15;53.50
65472;DHT22;52068;50.710;14.492;2023-08-07T12:50:10;23.17;53.52
65472;DHT22;52068;50.710;14.492;2023-08-07T12:52:36;23.17;53.45
65472;DHT22;52068;50.710;14.492;2023-08-07T12:55:01;23.18;53.36
65472;DHT22;52068;50.710;14.492;2023-08-07T12:57:26;23.18;53.49
65472;DHT22;52068;50.710;14.492;2023-08-07T12:59:52;23.15;53.61
65472;DHT22;52068;50.710;14.492;2023-08-07T13:02:17;23.18;53.82
65472;DHT22;52068;50.710;14.492;2023-08-07T13:04:43;23.17;53.70
65472;DHT22;52068;50.710;14.492;2023-08-07T13:07:08;23.20;53.68
65472;DHT22;52068;50.710;14.492;2023-08-07T13:09:33;23.23;54.01
65472;DHT22;52068;50.710;14.492;2023-08-07T13:11:59;23.20;54.25
65472;DHT22;52068;50.710;14.492;2023-08-07T13:14:25;23.21;54.17
65472;DHT22;52068;50.710;14.492;2023-08-07T13:16:50;23.24;54.07
65472;DHT22;52068;50.710;14.492;2023-08-07T13:19:16;23.23;54.26
65472;DHT22;52068;50.710;14.492;2023-08-07T13:21:41;23.21;54.21
65472;DHT22;52068;50.710;14.492;2023-08-07T13:24:07;23.23;54.26
65472;DHT22;52068;50.710;14.492;2023-08-07T13:26:32;23.24;54.22
65472;DHT22;52068;50.710;14.492;2023-08-07T13:28:58;23.25;54.22
65472;DHT22;52068;50.710;14.492;2023-08-07T13:31:23;23.27;54.23
65472;DHT22;52068;50.710;14.492;2023-08-07T13:33:48;23.25;54.21
65472;DHT22;52068;50.710;14.492;2023-08-07T13:36:14;23.27;54.12
65472;DHT22;52068;50.710;14.492;2023-08-07T13:38:39;23.30;54.14
65472;DHT22;52068;50.710;14.492;2023-08-07T13:41:05;23.33;54.15
65472;DHT22;52068;50.710;14.492;2023-08-07T13:43:30;23.33;54.06
65472;DHT22;52068;50.710;14.492;2023-08-07T13:45:55;23.34;54.08
65472;DHT22;52068;50.710;14.492;2023-08-07T13:48:21;23.35;54.03
65472;DHT22;52068;50.710;14.492;2023-08-07T13:50:47;23.35;54.03
65472;DHT22;52068;50.710;14.492;2023-08-07T13:53:12;23.35;53.88
65472;DHT22;52068;50.710;14.492;2023-08-07T13:55:38;23.35;53.85
65472;DHT22;52068;50.710;14.492;2023-08-07T13:58:03;23.34;53.96
65472;DHT22;52068;50.710;14.492;2023-08-07T14:00:29;23.35;53.73
65472;DHT22;52068;50.710;14.492;2023-08-07T14:02:55;23.35;53.90
65472;DHT22;52068;50.710;14.492;2023-08-07T14:05:20;23.33;53.59
65472;DHT22;52068;50.710;14.492;2023-08-07T14:07:45;23.31;53.63
65472;DHT22;52068;50.710;14.492;2023-08-07T14:10:11;23.31;53.84
65472;DHT22;52068;50.710;14.492;2023-08-07T14:12:36;23.31;53.48
65472;DHT22;52068;50.710;14.492;2023-08-07T14:15:02;23.31;53.88
65472;DHT22;52068;50.710;14.492;2023-08-07T14:17:27;23.33;53.74
65472;DHT22;52068;50.710;14.492;2023-08-07T14:19:52;23.33;53.77
65472;DHT22;52068;50.710;14.492;2023-08-07T14:22:18;23.34;53.92
65472;DHT22;52068;50.710;14.492;2023-08-07T14:24:43;23.33;53.86
65472;DHT22;52068;50.710;14.492;2023-08-07T14:27:08;23.33;53.52
65472;DHT22;52068;50.710;14.492;2023-08-07T14:29:34;23.34;53.55
65472;DHT22;52068;50.710;14.492;2023-08-07T14:31:59;23.31;53.37
65472;DHT22;52068;50.710;14.492;2023-08-07T14:34:25;23.33;53.57
65472;DHT22;52068;50.710;14.492;2023-08-07T14:36:50;23.30;53.61
65472;DHT22;52068;50.710;14.492;2023-08-07T14:39:17;23.28;53.70
65472;DHT22;52068;50.710;14.492;2023-08-07T14:41:42;23.27;53.77
65472;DHT22;52068;50.710;14.492;2023-08-07T14:44:08;23.25;53.83
65472;DHT22;52068;50.710;14.492;2023-08-07T14:46:33;23.23;53.93
65472;DHT22;52068;50.710;14.492;2023-08-07T14:48:59;23.23;54.05
65472;DHT22;52068;50.710;14.492;2023-08-07T14:51:24;23.24;53.89
65472;DHT22;52068;50.710;14.492;2023-08-07T14:53:50;23.23;53.95
65472;DHT22;52068;50.710;14.492;2023-08-07T14:56:15;23.24;53.95
65472;DHT22;52068;50.710;14.492;2023-08-07T14:58:40;23.24;54.14
65472;DHT22;52068;50.710;14.492;2023-08-07T15:01:06;23.27;54.20
65472;DHT22;52068;50.710;14.492;2023-08-07T15:03:31;23.25;54.15
65472;DHT22;52068;50.710;14.492;2023-08-07T15:05:56;23.25;53.85
65472;DHT22;52068;50.710;14.492;2023-08-07T15:08:23;23.28;53.89
65472;DHT22;52068;50.710;14.492;2023-08-07T15:10:51;23.27;53.80
65472;DHT22;52068;50.710;14.492;2023-08-07T15:13:16;23.27;53.76
65472;DHT22;52068;50.710;14.492;2023-08-07T15:15:42;23.24;53.82